SCOT36 YBOK-YBOK
Flight info
| Callsign | SCOT36 |
|---|---|
| Flight time | 0h 2m |
| Altitude | 2000 |
| Route | DCT |
| Aircraft | H135/L-SDFGRY/LB1 |
Departure
| Time | 2026-04-25 12:12 |
|---|---|
| Airport | Oakey Army Aviation Centre (YBOK) |
Arrival
| Time | 2026-04-25 12:15 |
|---|---|
| Airport | Oakey Army Aviation Centre (YBOK) |
| Time | Latitude | Longitude | Altitude | Speed | Heading |
|---|---|---|---|---|---|
| 2026-04-25 12:05 | -27.41281 | 151.73340 | 1334 ft | 0 kts | 99° |
| 2026-04-25 12:08 | -27.41283 | 151.73343 | 1351 ft | 1 kts | 97° |
| 2026-04-25 12:09 | -27.41284 | 151.73359 | 1352 ft | 5 kts | 41° |
| 2026-04-25 12:09 | -27.41256 | 151.73340 | 1356 ft | 10 kts | 283° |
| 2026-04-25 12:09 | -27.41221 | 151.73301 | 1362 ft | 8 kts | 2° |
| 2026-04-25 12:09 | -27.41184 | 151.73216 | 1369 ft | 21 kts | 276° |
| 2026-04-25 12:10 | -27.41158 | 151.73029 | 1374 ft | 25 kts | 284° |
| 2026-04-25 12:10 | -27.41125 | 151.72819 | 1388 ft | 33 kts | 283° |
| 2026-04-25 12:10 | -27.41087 | 151.72566 | 1362 ft | 24 kts | 285° |
| 2026-04-25 12:10 | -27.41036 | 151.72478 | 1348 ft | 1 kts | 342° |
| 2026-04-25 12:11 | -27.41013 | 151.72474 | 1348 ft | 7 kts | 346° |
| 2026-04-25 12:11 | -27.40948 | 151.72478 | 1349 ft | 9 kts | 15° |
| 2026-04-25 12:11 | -27.40923 | 151.72531 | 1347 ft | 9 kts | 103° |
| 2026-04-25 12:11 | -27.40932 | 151.72590 | 1350 ft | 17 kts | 104° |
| 2026-04-25 12:12 | -27.40979 | 151.72910 | 1368 ft | 66 kts | 102° |
| 2026-04-25 12:12 | -27.41038 | 151.73295 | 1463 ft | 80 kts | 102° |
| 2026-04-25 12:12 | -27.41182 | 151.74115 | 1750 ft | 81 kts | 98° |
| 2026-04-25 12:12 | -27.40954 | 151.74676 | 1960 ft | 85 kts | 37° |
| 2026-04-25 12:13 | -27.40358 | 151.74910 | 2000 ft | 95 kts | 13° |
| 2026-04-25 12:13 | -27.39821 | 151.74694 | 2069 ft | 85 kts | 296° |
| 2026-04-25 12:13 | -27.39693 | 151.74000 | 2000 ft | 96 kts | 278° |
| 2026-04-25 12:13 | -27.39594 | 151.73241 | 1972 ft | 95 kts | 277° |
| 2026-04-25 12:14 | -27.39526 | 151.72519 | 1976 ft | 94 kts | 274° |
| 2026-04-25 12:14 | -27.39732 | 151.71851 | 1903 ft | 92 kts | 221° |
| 2026-04-25 12:14 | -27.40321 | 151.71629 | 1794 ft | 92 kts | 187° |
| 2026-04-25 12:14 | -27.40824 | 151.71880 | 1649 ft | 81 kts | 113° |
| 2026-04-25 12:15 | -27.40914 | 151.72457 | 1442 ft | 58 kts | 98° |
| 2026-04-25 12:15 | -27.40947 | 151.72700 | 1341 ft | 3 kts | 102° |
| 2026-04-25 12:15 | -27.40947 | 151.72699 | 1339 ft | 0 kts | 102° |
| 2026-04-25 12:16 | -27.40949 | 151.72701 | 1342 ft | 1 kts | 109° |
| 2026-04-25 12:16 | -27.40960 | 151.72736 | 1366 ft | 15 kts | 102° |
| 2026-04-25 12:16 | -27.40993 | 151.72982 | 1381 ft | 54 kts | 101° |
| 2026-04-25 12:16 | -27.41068 | 151.73507 | 1542 ft | 75 kts | 102° |
| 2026-04-25 12:17 | -27.41065 | 151.74046 | 1847 ft | 69 kts | 67° |
| 2026-04-25 12:17 | -27.40650 | 151.74336 | 2042 ft | 79 kts | 7° |
| 2026-04-25 12:17 | -27.40079 | 151.74416 | 2040 ft | 84 kts | 351° |
| 2026-04-25 12:17 | -27.39715 | 151.73980 | 2097 ft | 80 kts | 277° |
| 2026-04-25 12:18 | -27.39666 | 151.73291 | 1987 ft | 94 kts | 273° |
| 2026-04-25 12:18 | -27.39654 | 151.72548 | 1995 ft | 95 kts | 268° |
| 2026-04-25 12:18 | -27.39743 | 151.71860 | 1969 ft | 87 kts | 240° |
| 2026-04-25 12:18 | -27.40228 | 151.71511 | 1894 ft | 85 kts | 190° |
| 2026-04-25 12:19 | -27.40845 | 151.72020 | 1698 ft | 65 kts | 101° |
| 2026-04-25 12:19 | -27.40901 | 151.72444 | 1443 ft | 16 kts | 103° |
| 2026-04-25 12:19 | -27.40917 | 151.72525 | 1360 ft | 3 kts | 104° |
| 2026-04-25 12:20 | -27.40923 | 151.72537 | 1358 ft | 3 kts | 105° |
| 2026-04-25 12:20 | -27.40948 | 151.72682 | 1366 ft | 38 kts | 103° |
| 2026-04-25 12:20 | -27.41017 | 151.73129 | 1450 ft | 74 kts | 101° |
| 2026-04-25 12:20 | -27.41108 | 151.73708 | 1696 ft | 72 kts | 99° |
| 2026-04-25 12:21 | -27.40979 | 151.74230 | 1909 ft | 73 kts | 50° |
| 2026-04-25 12:21 | -27.40505 | 151.74414 | 2083 ft | 77 kts | 357° |
| 2026-04-25 12:21 | -27.40211 | 151.73969 | 2137 ft | 76 kts | 283° |
| 2026-04-25 12:21 | -27.40071 | 151.73371 | 2125 ft | 81 kts | 282° |
| 2026-04-25 12:22 | -27.39957 | 151.72736 | 2061 ft | 84 kts | 279° |
| 2026-04-25 12:22 | -27.39882 | 151.72086 | 2036 ft | 82 kts | 265° |
| 2026-04-25 12:22 | -27.40184 | 151.71597 | 1962 ft | 78 kts | 202° |
| 2026-04-25 12:22 | -27.40725 | 151.71523 | 1805 ft | 74 kts | 151° |
| 2026-04-25 12:23 | -27.40873 | 151.72010 | 1617 ft | 68 kts | 91° |
| 2026-04-25 12:23 | -27.40901 | 151.72376 | 1455 ft | 32 kts | 98° |
| 2026-04-25 12:23 | -27.40924 | 151.72563 | 1367 ft | 25 kts | 108° |
| 2026-04-25 12:23 | -27.40973 | 151.72860 | 1376 ft | 56 kts | 105° |
| 2026-04-25 12:24 | -27.41051 | 151.73342 | 1567 ft | 69 kts | 104° |
| 2026-04-25 12:24 | -27.41077 | 151.73861 | 1833 ft | 66 kts | 70° |
| 2026-04-25 12:24 | -27.40671 | 151.74098 | 2001 ft | 75 kts | 10° |
| 2026-04-25 12:24 | -27.40192 | 151.73990 | 2029 ft | 71 kts | 316° |
| 2026-04-25 12:25 | -27.40021 | 151.73478 | 2057 ft | 73 kts | 282° |
| 2026-04-25 12:25 | -27.39918 | 151.72876 | 2018 ft | 81 kts | 277° |
| 2026-04-25 12:25 | -27.39844 | 151.72230 | 2002 ft | 85 kts | 275° |
| 2026-04-25 12:25 | -27.40034 | 151.71620 | 1895 ft | 86 kts | 223° |
| 2026-04-25 12:26 | -27.40398 | 151.71441 | 1827 ft | 87 kts | 182° |
| 2026-04-25 12:26 | -27.40846 | 151.71782 | 1653 ft | 85 kts | 104° |
| 2026-04-25 12:26 | -27.40886 | 151.72353 | 1433 ft | 57 kts | 109° |
| 2026-04-25 12:26 | -27.40930 | 151.72595 | 1356 ft | 24 kts | 107° |
| 2026-04-25 12:27 | -27.40989 | 151.72941 | 1408 ft | 69 kts | 107° |
| 2026-04-25 12:27 | -27.41072 | 151.73571 | 1652 ft | 82 kts | 88° |
| 2026-04-25 12:27 | -27.40748 | 151.74051 | 1940 ft | 83 kts | 23° |
| 2026-04-25 12:27 | -27.40177 | 151.74028 | 2075 ft | 87 kts | 324° |
| 2026-04-25 12:28 | -27.39964 | 151.73395 | 2054 ft | 95 kts | 275° |
| 2026-04-25 12:28 | -27.39920 | 151.72668 | 2022 ft | 88 kts | 271° |
| 2026-04-25 12:28 | -27.39982 | 151.72002 | 1908 ft | 83 kts | 240° |
| 2026-04-25 12:28 | -27.40424 | 151.71726 | 1803 ft | 74 kts | 175° |
| 2026-04-25 12:29 | -27.40802 | 151.72035 | 1614 ft | 68 kts | 115° |
| 2026-04-25 12:29 | -27.40904 | 151.72455 | 1410 ft | 35 kts | 109° |
| 2026-04-25 12:29 | -27.40952 | 151.72718 | 1372 ft | 52 kts | 107° |
| 2026-04-25 12:29 | -27.41043 | 151.73250 | 1530 ft | 86 kts | 102° |
| 2026-04-25 12:30 | -27.40950 | 151.73867 | 1789 ft | 82 kts | 53° |
| 2026-04-25 12:30 | -27.40429 | 151.74116 | 1972 ft | 86 kts | 10° |
| 2026-04-25 12:30 | -27.39839 | 151.74023 | 2034 ft | 86 kts | 318° |
| 2026-04-25 12:30 | -27.39642 | 151.73417 | 1959 ft | 88 kts | 275° |
| 2026-04-25 12:31 | -27.39622 | 151.72694 | 1844 ft | 98 kts | 269° |
| 2026-04-25 12:31 | -27.39729 | 151.72001 | 1904 ft | 86 kts | 237° |
| 2026-04-25 12:31 | -27.40226 | 151.71716 | 1807 ft | 81 kts | 190° |
| 2026-04-25 12:31 | -27.40710 | 151.71858 | 1646 ft | 66 kts | 130° |
| 2026-04-25 12:32 | -27.40864 | 151.72282 | 1474 ft | 47 kts | 105° |
| 2026-04-25 12:32 | -27.40914 | 151.72493 | 1356 ft | 9 kts | 106° |
| 2026-04-25 12:32 | -27.40946 | 151.72674 | 1368 ft | 40 kts | 104° |
| 2026-04-25 12:32 | -27.41023 | 151.73137 | 1485 ft | 79 kts | 102° |
| 2026-04-25 12:33 | -27.41015 | 151.73754 | 1772 ft | 81 kts | 68° |
| 2026-04-25 12:33 | -27.40554 | 151.74145 | 1897 ft | 91 kts | 10° |
| 2026-04-25 12:33 | -27.39949 | 151.73984 | 1962 ft | 97 kts | 307° |
| 2026-04-25 12:33 | -27.39796 | 151.73275 | 1978 ft | 92 kts | 274° |
| 2026-04-25 12:34 | -27.39799 | 151.72539 | 1999 ft | 98 kts | 265° |
| 2026-04-25 12:34 | -27.40179 | 151.72019 | 1875 ft | 84 kts | 200° |
| 2026-04-25 12:34 | -27.40684 | 151.72066 | 1652 ft | 68 kts | 142° |
| 2026-04-25 12:34 | -27.40857 | 151.72330 | 1475 ft | 56 kts | 116° |
| 2026-04-25 12:35 | -27.40916 | 151.72521 | 1351 ft | 3 kts | 101° |
| 2026-04-25 12:35 | -27.40942 | 151.72611 | 1372 ft | 29 kts | 101° |
| 2026-04-25 12:35 | -27.40998 | 151.73026 | 1457 ft | 78 kts | 99° |
| 2026-04-25 12:35 | -27.41070 | 151.73721 | 1733 ft | 89 kts | 84° |
| 2026-04-25 12:36 | -27.40694 | 151.74274 | 2013 ft | 94 kts | 29° |
| 2026-04-25 12:36 | -27.40048 | 151.74405 | 2057 ft | 93 kts | 347° |
| 2026-04-25 12:36 | -27.39643 | 151.73944 | 2066 ft | 86 kts | 280° |
| 2026-04-25 12:36 | -27.39604 | 151.73230 | 1997 ft | 94 kts | 272° |
| 2026-04-25 12:37 | -27.39623 | 151.72493 | 1951 ft | 93 kts | 264° |
| 2026-04-25 12:37 | -27.39942 | 151.71911 | 1886 ft | 87 kts | 202° |
| 2026-04-25 12:37 | -27.40490 | 151.71873 | 1761 ft | 71 kts | 155° |
| 2026-04-25 12:37 | -27.40824 | 151.72215 | 1505 ft | 59 kts | 121° |
| 2026-04-25 12:38 | -27.40907 | 151.72495 | 1354 ft | 12 kts | 107° |
| 2026-04-25 12:38 | -27.40912 | 151.72504 | 1351 ft | 1 kts | 110° |
| 2026-04-25 12:38 | -27.40915 | 151.72508 | 1349 ft | 1 kts | 96° |
| 2026-04-25 12:38 | -27.40905 | 151.72512 | 1349 ft | 2 kts | 112° |
| 2026-04-25 12:39 | -27.40920 | 151.72518 | 1358 ft | 3 kts | 101° |
| 2026-04-25 12:39 | -27.40951 | 151.72687 | 1387 ft | 42 kts | 98° |
| 2026-04-25 12:39 | -27.41036 | 151.73193 | 1538 ft | 79 kts | 101° |
| 2026-04-25 12:39 | -27.40968 | 151.73755 | 1899 ft | 73 kts | 49° |
| 2026-04-25 12:40 | -27.40511 | 151.73855 | 2093 ft | 65 kts | 331° |
| 2026-04-25 12:40 | -27.40332 | 151.73383 | 2047 ft | 75 kts | 284° |
| 2026-04-25 12:40 | -27.40215 | 151.72793 | 1982 ft | 79 kts | 283° |
| 2026-04-25 12:40 | -27.40193 | 151.72172 | 1895 ft | 79 kts | 245° |
| 2026-04-25 12:41 | -27.40585 | 151.71901 | 1750 ft | 65 kts | 169° |
| 2026-04-25 12:41 | -27.40850 | 151.72215 | 1529 ft | 48 kts | 109° |
| 2026-04-25 12:41 | -27.40908 | 151.72470 | 1379 ft | 14 kts | 103° |
| 2026-04-25 12:41 | -27.40919 | 151.72516 | 1362 ft | 5 kts | 105° |
| 2026-04-25 12:42 | -27.40951 | 151.72678 | 1377 ft | 45 kts | 102° |
| 2026-04-25 12:42 | -27.40997 | 151.72995 | 1450 ft | 74 kts | 98° |
| 2026-04-25 12:42 | -27.40917 | 151.73756 | 1814 ft | 73 kts | 47° |
| 2026-04-25 12:42 | -27.40440 | 151.73912 | 1989 ft | 76 kts | 342° |
| 2026-04-25 12:43 | -27.40211 | 151.73451 | 2017 ft | 72 kts | 284° |
| 2026-04-25 12:43 | -27.40094 | 151.72837 | 1977 ft | 87 kts | 280° |
| 2026-04-25 12:43 | -27.40385 | 151.71836 | 1804 ft | 67 kts | 187° |
| 2026-04-25 12:44 | -27.40785 | 151.72049 | 1600 ft | 63 kts | 125° |
| 2026-04-25 12:44 | -27.40906 | 151.72454 | 1397 ft | 37 kts | 101° |
| 2026-04-25 12:44 | -27.40917 | 151.72561 | 1338 ft | 2 kts | 111° |
| 2026-04-25 12:45 | -27.40939 | 151.72647 | 1349 ft | 17 kts | 109° |
| 2026-04-25 12:45 | -27.40958 | 151.72772 | 1356 ft | 20 kts | 108° |
| 2026-04-25 12:45 | -27.41074 | 151.72837 | 1346 ft | 11 kts | 196° |
| 2026-04-25 12:46 | -27.41136 | 151.72884 | 1352 ft | 17 kts | 112° |
| 2026-04-25 12:46 | -27.41159 | 151.73042 | 1348 ft | 21 kts | 112° |
| 2026-04-25 12:46 | -27.41181 | 151.73190 | 1345 ft | 17 kts | 112° |
| 2026-04-25 12:46 | -27.41204 | 151.73290 | 1343 ft | 7 kts | 171° |
| 2026-04-25 12:47 | -27.41266 | 151.73288 | 1343 ft | 10 kts | 126° |
| 2026-04-25 12:47 | -27.41280 | 151.73327 | 1339 ft | 1 kts | 103° |
| 2026-04-25 12:47 | -27.41280 | 151.73328 | 1335 ft | 0 kts | 102° |